Overview Statistics Trail Chart Weather Telemetry Raw packets
 

This is the latest recevied weather packets stored in our database for station/object OM5ZU-10. If no packets are shown the sender has not sent any weather packets the latest 10 day(s).

<< 4 5 6 7 8 9 10 >>
Time Temp. Humidity Pressure Rain* Wind** Luminosity Snow
1788452397 25° C 43% 1017.1 hPa - - - -
1788451496 25° C 41% 1017.2 hPa - - - -
1788450596 25.56° C 42% 1017.2 hPa - - - -
1788449695 26.11° C 42% 1017.2 hPa - - - -
1788448958 26.11° C 41% 1017.2 hPa - - - -
1788448058 26.11° C 41% 1017.4 hPa - - - -
1788447158 26.11° C 40% 1017.5 hPa - - - -
1788446258 27.22° C 41% 1017.5 hPa - - - -
1788445358 28.33° C 38% 1017.4 hPa - - - -
1788444458 26.67° C 39% 1017.4 hPa - - - -
1788443557 26.67° C 39% 1017.5 hPa - - - -
1788442657 27.22° C 37% 1017.8 hPa - - - -
1788441757 28.33° C 37% 1017.8 hPa - - - -
1788440857 28.89° C 37% 1017.9 hPa - - - -
1788439957 27.22° C 39% 1018 hPa - - - -
1788439057 27.22° C 37% 1018.1 hPa - - - -
1788438156 27.22° C 38% 1018.1 hPa - - - -
1788437256 26.67° C 40% 1018.1 hPa - - - -
1788436356 27.78° C 41% 1018 hPa - - - -
1788435456 29.44° C 38% 1018.1 hPa - - - -
1788434556 26.11° C 44% 1018.3 hPa - - - -
1788433656 27.22° C 42% 1018.5 hPa - - - -
1788432756 28.33° C 40% 1018.6 hPa - - - -
1788431855 29.44° C 38% 1018.7 hPa - - - -
1788430955 26.67° C 42% 1018.9 hPa - - - -

* Rain since midnight (hover to see other rain measurements)
** Current wind speed in m/s (hover to see current wind gust speed)